Terminal Aerodrome Forecast
Issued by NWS

Current Version | Previous Version | Graphics & Text | Print | Product List | Glossary On
Versions: 1 2 3 4 5 6 7 8 9 10 11 12 13 14 15 16
000
FTUS41 KPBZ 151124
TAFHLG
TAF
KHLG 151124Z 1512/1612 VRB03KT P6SM SCT030 OVC120
      TEMPO 1512/1514 BKN030
     FM152200 24010G16KT P6SM VCSH OVC040
     FM160400 26011KT P6SM BKN050=

USA.gov is the U.S. government's official web portal to all federal, state and local government web resources and services.